Time;durP1;ratioP1;P1;durP2;ratioP2;P2;SDS_P1;SDS_P2;PMS_P1;PMS_P2;Temp;Humidity;BMP_temperature;BMP_pressure;BME280_temperature;BME280_humidity;BME280_pressure;Samples;Min_cycle;Max_cycle;Signal;HPM_P1;HPM_P2
2023/06/29 00:00:22;;;;;;;1.60;1.60;;;;;;;17.50;100.00;96903.44;4966997;28;20349;-61
2023/06/29 00:02:49;;;;;;;1.63;1.63;;;;;;;16.88;100.00;96844.16;4967801;28;20051;-61
2023/06/29 00:05:18;;;;;;;1.60;1.60;;;;;;;17.01;100.00;96848.03;4968180;28;20113;-62
2023/06/29 00:07:45;;;;;;;1.50;1.50;;;;;;;17.28;100.00;96879.69;4966760;28;20075;-62
2023/06/29 00:10:13;;;;;;;1.50;1.50;;;;;;;17.15;100.00;96859.06;4966421;28;20475;-61
2023/06/29 00:12:40;;;;;;;1.65;1.65;;;;;;;17.06;100.00;96883.94;4967856;28;20050;-60
2023/06/29 00:15:07;;;;;;;1.50;1.50;;;;;;;17.00;100.00;96896.78;4966563;28;20552;-61
2023/06/29 00:17:34;;;;;;;1.48;1.48;;;;;;;16.39;100.00;96890.16;4967784;28;20051;-61
2023/06/29 00:20:02;;;;;;;1.38;1.38;;;;;;;15.95;100.00;96888.06;4967861;28;20529;-61
2023/06/29 00:22:29;;;;;;;1.42;1.42;;;;;;;15.79;100.00;96890.56;4967980;28;20101;-60
2023/06/29 00:24:56;;;;;;;1.27;1.27;;;;;;;15.84;100.00;96909.69;4968142;28;20085;-61
2023/06/29 00:27:24;;;;;;;1.50;1.50;;;;;;;16.07;100.00;96935.09;4967254;28;20438;-61
2023/06/29 00:29:51;;;;;;;1.50;1.50;;;;;;;16.16;100.00;96932.66;4966112;28;20095;-61
2023/06/29 00:32:17;;;;;;;1.52;1.52;;;;;;;16.15;100.00;96897.53;4966939;28;20050;-61
2023/06/29 00:34:44;;;;;;;1.50;1.50;;;;;;;16.43;100.00;96888.91;4967527;28;20057;-62
2023/06/29 00:37:11;;;;;;;1.40;1.40;;;;;;;16.51;100.00;96864.50;4965980;28;20458;-62
2023/06/29 00:39:39;;;;;;;1.20;1.20;;;;;;;16.44;100.00;96856.97;4966254;28;20062;-62
2023/06/29 00:42:06;;;;;;;1.60;1.60;;;;;;;16.60;100.00;96876.81;4964846;28;20074;-61
2023/06/29 00:44:32;;;;;;;1.40;1.40;;;;;;;16.66;100.00;96887.56;4974351;28;20126;-61
2023/06/29 00:46:59;;;;;;;1.42;1.42;;;;;;;16.41;100.00;96871.75;4966988;28;20043;-62
2023/06/29 00:49:27;;;;;;;1.55;1.55;;;;;;;16.60;100.00;96901.97;4967243;28;20094;-62
2023/06/29 00:51:54;;;;;;;1.60;1.60;;;;;;;16.56;100.00;96909.63;4981769;28;20665;-62
2023/06/29 00:54:22;;;;;;;1.50;1.50;;;;;;;16.44;100.00;96912.91;4967297;28;20065;-62
2023/06/29 00:56:49;;;;;;;1.52;1.52;;;;;;;15.91;100.00;96844.59;4965784;28;20299;-62
2023/06/29 00:59:16;;;;;;;1.30;1.30;;;;;;;16.14;100.00;96923.06;4967092;28;20057;-62
2023/06/29 01:01:43;;;;;;;1.38;1.38;;;;;;;16.13;100.00;96933.47;4966626;28;20050;-63
2023/06/29 01:04:17;;;;;;;1.40;1.40;;;;;;;16.00;100.00;96912.78;4966757;28;20057;-62
2023/06/29 01:07:00;;;;;;;1.40;1.40;;;;;;;15.70;100.00;96869.84;4966747;28;20051;-62
2023/06/29 01:09:29;;;;;;;1.40;1.40;;;;;;;15.99;100.00;96916.78;4966872;28;20051;-61
2023/06/29 01:11:58;;;;;;;1.52;1.52;;;;;;;15.90;100.00;96924.81;4966656;28;20170;-62
2023/06/29 01:14:26;;;;;;;1.30;1.30;;;;;;;15.84;100.00;96920.09;4981316;28;20532;-62
2023/06/29 01:16:56;;;;;;;1.40;1.40;;;;;;;15.92;100.00;96919.63;4965233;28;20061;-62
2023/06/29 01:19:25;;;;;;;1.40;1.40;;;;;;;15.54;100.00;96864.00;4966506;28;20062;-63
2023/06/29 01:22:02;;;;;;;1.30;1.30;;;;;;;15.63;100.00;96853.97;4966529;28;20055;-62
2023/06/29 01:24:37;;;;;;;1.30;1.30;;;;;;;15.94;100.00;96892.06;4953690;28;20063;-61
2023/06/29 01:27:04;;;;;;;1.40;1.40;;;;;;;15.74;100.00;96865.88;4946964;28;20054;-62
2023/06/29 01:29:31;;;;;;;1.52;1.52;;;;;;;15.95;100.00;96898.47;4947434;28;20069;-63
2023/06/29 01:32:03;;;;;;;1.50;1.50;;;;;;;15.75;100.00;96864.66;4947123;28;20154;-62
2023/06/29 01:34:31;;;;;;;1.48;1.48;;;;;;;16.01;100.00;96914.34;4947301;28;20059;-62
2023/06/29 01:37:04;;;;;;;1.60;1.60;;;;;;;16.08;100.00;96908.75;4947510;28;20455;-61
2023/06/29 01:39:57;;;;;;;1.20;1.20;;;;;;;16.12;100.00;96900.34;4947235;28;20058;-62
2023/06/29 01:42:25;;;;;;;1.35;1.35;;;;;;;15.72;100.00;96833.94;4946485;28;20604;-62
2023/06/29 01:44:54;;;;;;;1.52;1.52;;;;;;;15.73;100.00;96839.13;4946806;28;20462;-63
2023/06/29 01:47:21;;;;;;;1.40;1.40;;;;;;;16.08;100.00;96896.75;4946673;28;20117;-63
2023/06/29 01:49:49;;;;;;;1.30;1.30;;;;;;;15.82;100.00;96842.25;4946670;28;20161;-61
2023/06/29 01:52:16;;;;;;;1.60;1.60;;;;;;;16.08;100.00;96888.38;4936425;28;20516;-61
2023/06/29 01:54:43;;;;;;;1.50;1.50;;;;;;;16.03;100.00;96880.41;4927530;28;20058;-61
2023/06/29 01:57:09;;;;;;;1.38;1.38;;;;;;;15.72;100.00;96814.41;4927532;29;20062;-62
2023/06/29 01:59:36;;;;;;;1.40;1.40;;;;;;;16.10;100.00;96878.41;4927849;29;20150;-61
2023/06/29 02:02:03;;;;;;;1.50;1.50;;;;;;;16.12;100.00;96864.78;4927209;29;20158;-61
2023/06/29 02:04:30;;;;;;;1.63;1.63;;;;;;;16.29;100.00;96874.25;4927649;29;20062;-61
2023/06/29 02:06:56;;;;;;;1.10;1.10;;;;;;;16.00;100.00;96870.06;4927292;29;20063;-61
2023/06/29 02:09:23;;;;;;;1.55;1.55;;;;;;;15.73;100.00;96825.16;4927619;29;20310;-61
2023/06/29 02:11:50;;;;;;;1.42;1.42;;;;;;;16.16;100.00;96893.50;4927088;29;20515;-61
2023/06/29 02:14:19;;;;;;;1.40;1.40;;;;;;;16.23;100.00;96920.63;4927481;29;20064;-61
2023/06/29 02:16:47;;;;;;;1.50;1.50;;;;;;;16.28;100.00;96917.41;4925984;29;20059;-61
2023/06/29 02:19:14;;;;;;;1.30;1.30;;;;;;;16.30;100.00;96903.78;4927594;29;20048;-61
2023/06/29 02:21:40;;;;;;;1.30;1.30;;;;;;;16.42;100.00;96876.13;4927609;29;20055;-62
2023/06/29 02:24:07;;;;;;;1.50;1.50;;;;;;;16.14;100.00;96828.03;4927456;29;20052;-62
2023/06/29 02:26:34;;;;;;;1.38;1.38;;;;;;;16.47;100.00;96880.53;4933184;29;20056;-61
2023/06/29 02:29:01;;;;;;;1.50;1.50;;;;;;;16.53;100.00;96884.47;4927487;29;20118;-62
2023/06/29 02:31:27;;;;;;;1.50;1.50;;;;;;;16.55;100.00;96893.22;4925635;29;20059;-62
2023/06/29 02:33:54;;;;;;;1.40;1.40;;;;;;;16.56;100.00;96903.22;4925710;29;20063;-61
2023/06/29 02:36:22;;;;;;;1.40;1.40;;;;;;;16.49;100.00;96878.91;4926822;29;20056;-61
2023/06/29 02:38:48;;;;;;;1.52;1.52;;;;;;;16.64;100.00;96885.94;4927121;29;20052;-60
2023/06/29 02:41:15;;;;;;;1.60;1.60;;;;;;;16.29;100.00;96829.53;4926789;29;20052;-60
2023/06/29 02:43:42;;;;;;;1.25;1.25;;;;;;;16.63;100.00;96912.34;4930456;29;20070;-61
2023/06/29 02:46:08;;;;;;;1.67;1.67;;;;;;;16.68;100.00;96901.94;4946052;28;20110;-61
2023/06/29 02:48:35;;;;;;;1.60;1.60;;;;;;;16.73;100.00;96893.88;4946081;28;20063;-61
2023/06/29 02:51:02;;;;;;;1.30;1.30;;;;;;;16.73;100.00;96893.06;4946166;28;20047;-61
2023/06/29 02:53:29;;;;;;;1.30;1.30;;;;;;;16.80;100.00;96893.00;4945977;29;20063;-61
2023/06/29 02:55:56;;;;;;;1.40;1.40;;;;;;;16.86;100.00;96885.75;4946369;28;20430;-61
2023/06/29 02:58:22;;;;;;;1.30;1.30;;;;;;;16.90;100.00;96898.50;4944503;29;20135;-62
2023/06/29 03:00:49;;;;;;;1.45;1.45;;;;;;;16.90;100.00;96887.28;4945869;28;20055;-62
2023/06/29 03:03:16;;;;;;;1.60;1.60;;;;;;;16.58;100.00;96831.66;4944655;29;20059;-61
2023/06/29 03:05:43;;;;;;;1.60;1.60;;;;;;;16.42;100.00;96890.09;4948780;28;20059;-61
2023/06/29 03:08:10;;;;;;;1.30;1.30;;;;;;;16.57;100.00;96891.63;4947965;29;20086;-62
2023/06/29 03:10:37;;;;;;;1.60;1.60;;;;;;;16.76;100.00;96892.22;4949543;28;20051;-61
2023/06/29 03:13:03;;;;;;;1.30;1.30;;;;;;;16.40;100.00;96895.34;4949550;29;20055;-62
2023/06/29 03:15:30;;;;;;;1.50;1.50;;;;;;;16.27;100.00;96899.81;4949743;28;20454;-62
2023/06/29 03:17:56;;;;;;;1.42;1.42;;;;;;;16.35;100.00;96879.00;4949910;28;20058;-62
2023/06/29 03:20:23;;;;;;;1.60;1.60;;;;;;;16.63;100.00;96889.16;4949509;28;20054;-62
2023/06/29 03:22:50;;;;;;;1.50;1.50;;;;;;;16.66;100.00;96888.31;4948534;29;20043;-62
2023/06/29 03:25:16;;;;;;;1.65;1.65;;;;;;;16.89;100.00;96902.50;4949703;28;20063;-61
2023/06/29 03:27:43;;;;;;;1.60;1.60;;;;;;;16.93;100.00;96903.25;4949322;28;20059;-62
2023/06/29 03:30:10;;;;;;;1.50;1.50;;;;;;;17.03;100.00;96904.34;4949447;28;20051;-62
2023/06/29 03:32:37;;;;;;;1.60;1.60;;;;;;;17.14;100.00;96907.84;4949926;28;20055;-62
2023/06/29 03:35:04;;;;;;;1.67;1.67;;;;;;;16.78;100.00;96903.81;4949568;28;20055;-61
2023/06/29 03:37:30;;;;;;;1.60;1.60;;;;;;;17.00;100.00;96905.19;4948883;28;20162;-61
2023/06/29 03:39:57;;;;;;;1.50;1.50;;;;;;;17.06;100.00;96901.53;4973808;28;20069;-61
2023/06/29 03:42:24;;;;;;;1.60;1.60;;;;;;;16.80;100.00;96853.84;4976575;28;20043;-60
2023/06/29 03:44:51;;;;;;;1.52;1.52;;;;;;;17.19;100.00;96893.38;4968557;28;20062;-62
2023/06/29 03:47:18;;;;;;;1.60;1.60;;;;;;;17.15;100.00;96912.25;4966591;28;20497;-61
2023/06/29 03:49:44;;;;;;;1.60;1.60;;;;;;;17.27;100.00;96906.09;4971953;28;20547;-61
2023/06/29 03:52:11;;;;;;;1.70;1.70;;;;;;;17.22;100.00;96909.34;4985134;28;20051;-61
2023/06/29 03:54:38;;;;;;;1.80;1.80;;;;;;;16.93;100.00;96841.69;4968164;28;20063;-60
2023/06/29 03:57:05;;;;;;;1.70;1.70;;;;;;;17.27;100.00;96889.28;4968134;28;20055;-61
2023/06/29 03:59:32;;;;;;;1.42;1.42;;;;;;;17.45;100.00;96901.13;4966929;28;20051;-61
2023/06/29 04:01:58;;;;;;;1.67;1.67;;;;;;;17.51;100.00;96899.44;4967654;28;20050;-61
2023/06/29 04:04:25;;;;;;;1.70;1.70;;;;;;;17.50;100.00;96911.84;4968080;28;20050;-61
2023/06/29 04:06:52;;;;;;;1.40;1.40;;;;;;;17.65;100.00;96913.28;4967948;28;20058;-61
2023/06/29 04:09:19;;;;;;;1.60;1.60;;;;;;;17.62;99.77;96914.09;4966860;28;20050;-61
2023/06/29 04:11:45;;;;;;;1.63;1.63;;;;;;;17.73;97.30;96931.56;4967978;28;20211;-61
2023/06/29 04:14:12;;;;;;;1.58;1.58;;;;;;;17.57;98.96;96912.56;4968387;28;20058;-61
2023/06/29 04:16:39;;;;;;;1.65;1.65;;;;;;;17.69;100.00;96928.81;4967794;28;20053;-62
2023/06/29 04:19:06;;;;;;;1.67;1.67;;;;;;;17.81;100.00;96925.44;4967867;28;20146;-61
2023/06/29 04:21:32;;;;;;;1.70;1.70;;;;;;;17.93;100.00;96927.72;4966115;28;20059;-61
2023/06/29 04:23:59;;;;;;;1.50;1.50;;;;;;;18.00;100.00;96924.78;4967892;28;20081;-60
2023/06/29 04:26:28;;;;;;;1.60;1.60;;;;;;;18.16;100.00;96918.59;4967811;28;20058;-61
2023/06/29 04:29:03;;;;;;;1.80;1.80;;;;;;;18.38;99.21;96925.50;4967337;28;20053;-61
2023/06/29 04:31:30;;;;;;;1.70;1.70;;;;;;;18.34;96.55;96907.06;4967142;28;20053;-60
2023/06/29 04:33:58;;;;;;;1.60;1.60;;;;;;;18.48;94.00;96930.13;4967488;28;20058;-60
2023/06/29 04:36:25;;;;;;;1.70;1.70;;;;;;;18.57;92.58;96936.00;4967207;28;20055;-61
2023/06/29 04:38:53;;;;;;;1.88;1.88;;;;;;;18.39;91.04;96907.44;4967330;28;20066;-62
2023/06/29 04:41:30;;;;;;;1.65;1.65;;;;;;;18.73;89.14;96941.72;4966112;28;20050;-62
2023/06/29 04:43:58;;;;;;;1.60;1.60;;;;;;;18.74;88.90;96948.16;4967121;28;20050;-61
2023/06/29 04:46:28;;;;;;;1.67;1.67;;;;;;;18.51;87.58;96894.81;4963855;28;20050;-61
2023/06/29 04:48:55;;;;;;;1.65;1.65;;;;;;;18.85;87.99;96949.56;4966861;28;20125;-61
2023/06/29 04:51:21;;;;;;;2.10;2.10;;;;;;;18.87;92.14;96941.50;4967075;28;20050;-61
2023/06/29 04:53:48;;;;;;;1.85;1.85;;;;;;;18.95;92.86;96926.13;4966609;28;20046;-62
2023/06/29 04:56:15;;;;;;;1.80;1.80;;;;;;;19.36;90.07;96946.25;4967242;28;20528;-61
2023/06/29 04:58:41;;;;;;;1.90;1.90;;;;;;;18.85;86.92;96899.03;4966867;28;20141;-61
2023/06/29 05:01:08;;;;;;;1.92;1.92;;;;;;;19.33;87.10;96924.63;4966465;28;20050;-61
2023/06/29 05:03:35;;;;;;;1.60;1.60;;;;;;;19.19;84.67;96907.25;4966979;28;20087;-60
2023/06/29 05:06:02;;;;;;;2.03;2.03;;;;;;;19.58;84.59;96957.09;4966485;28;20137;-60
2023/06/29 05:08:29;;;;;;;1.85;1.85;;;;;;;19.57;85.10;96961.13;4965359;28;20506;-61
2023/06/29 05:10:56;;;;;;;2.13;2.13;;;;;;;19.47;84.28;96963.69;4968712;28;20050;-61
2023/06/29 05:13:23;;;;;;;2.00;2.00;;;;;;;19.27;84.95;96962.84;4986055;28;20050;-60
2023/06/29 05:15:49;;;;;;;1.75;1.75;;;;;;;19.28;85.48;96960.88;4985842;28;20046;-63
2023/06/29 05:18:16;;;;;;;1.90;1.90;;;;;;;19.14;88.64;96967.50;4985866;28;20069;-61
2023/06/29 05:20:43;;;;;;;1.67;1.67;;;;;;;19.06;88.88;96960.41;5016935;28;20042;-60
2023/06/29 05:23:11;;;;;;;1.95;1.95;;;;;;;19.31;89.77;96960.81;4985749;28;20054;-62
2023/06/29 05:25:39;;;;;;;1.80;1.80;;;;;;;19.34;88.87;96967.56;4985791;28;20134;-61
2023/06/29 05:28:06;;;;;;;1.90;1.90;;;;;;;19.53;87.30;96973.22;4985071;28;20077;-60
2023/06/29 05:30:34;;;;;;;1.90;1.90;;;;;;;19.32;85.56;96934.28;4982588;28;20461;-61
2023/06/29 05:33:00;;;;;;;2.00;2.00;;;;;;;19.73;82.53;96975.28;4982856;28;20552;-60
2023/06/29 05:35:27;;;;;;;1.83;1.83;;;;;;;19.72;85.93;96940.72;4984569;28;20108;-63
2023/06/29 05:37:54;;;;;;;1.88;1.88;;;;;;;20.04;83.78;96979.44;5016045;28;20057;-61
2023/06/29 05:40:21;;;;;;;2.00;2.00;;;;;;;19.91;84.38;96930.69;4984726;28;20054;-61
2023/06/29 05:42:48;;;;;;;2.00;2.00;;;;;;;20.05;84.07;96970.56;4984706;28;20112;-59
2023/06/29 05:45:14;;;;;;;2.05;2.05;;;;;;;19.39;85.37;96939.75;4980597;28;20046;-61
2023/06/29 05:47:41;;;;;;;1.70;1.70;;;;;;;18.94;85.23;96974.25;4984198;28;20441;-56
2023/06/29 05:50:08;;;;;;;1.90;1.90;;;;;;;19.38;82.96;96976.72;4971547;28;20140;-59
2023/06/29 05:52:36;;;;;;;1.80;1.80;;;;;;;19.58;79.77;96969.13;5007338;28;20045;-55
2023/06/29 05:55:03;;;;;;;1.83;1.83;;;;;;;19.21;77.24;96967.38;4987093;28;20368;-58
2023/06/29 05:57:30;;;;;;;1.90;1.90;;;;;;;19.14;76.11;96891.66;4981030;28;20078;-59
2023/06/29 05:59:56;;;;;;;1.80;1.80;;;;;;;19.98;72.70;96969.94;4985127;28;20058;-60
2023/06/29 06:02:23;;;;;;;2.15;2.15;;;;;;;19.90;72.97;96912.25;4983823;28;20056;-62
2023/06/29 06:04:50;;;;;;;2.10;2.10;;;;;;;20.15;72.16;96969.59;4984777;28;20100;-61
2023/06/29 06:07:28;;;;;;;1.80;1.80;;;;;;;20.19;72.45;96969.47;4980101;28;20046;-59
2023/06/29 06:09:56;;;;;;;1.70;1.70;;;;;;;20.54;73.65;96975.13;4989675;28;20124;-58
2023/06/29 06:12:23;;;;;;;1.83;1.83;;;;;;;20.29;73.36;96937.53;4983972;28;20046;-62
2023/06/29 06:14:50;;;;;;;2.15;2.15;;;;;;;20.76;70.43;96972.59;4983968;28;20054;-62
2023/06/29 06:17:16;;;;;;;2.20;2.20;;;;;;;20.57;71.03;96960.16;4966765;28;20509;-61
2023/06/29 06:19:43;;;;;;;2.00;2.00;;;;;;;20.88;70.57;96974.72;4964631;28;20050;-60
2023/06/29 06:22:10;;;;;;;1.90;1.90;;;;;;;21.14;71.14;96976.50;4961941;28;20055;-59
2023/06/29 06:24:37;;;;;;;2.00;2.00;;;;;;;21.35;71.11;96978.78;4965089;28;20050;-60
2023/06/29 06:27:04;;;;;;;2.00;2.00;;;;;;;21.49;70.94;96972.75;4964669;28;20046;-62
2023/06/29 06:29:30;;;;;;;2.38;2.30;;;;;;;21.25;68.80;96894.50;4965176;28;20050;-59
2023/06/29 06:31:57;;;;;;;2.30;2.28;;;;;;;21.77;67.89;96960.72;4962586;28;20053;-59
2023/06/29 06:34:24;;;;;;;2.15;2.15;;;;;;;21.76;67.23;96925.31;4993674;28;20116;-63
2023/06/29 06:36:51;;;;;;;2.00;2.00;;;;;;;22.23;68.67;96965.81;4994432;28;20134;-64
2023/06/29 06:39:18;;;;;;;2.50;2.40;;;;;;;22.19;66.96;96953.81;4963058;28;20502;-60
2023/06/29 06:41:45;;;;;;;2.58;2.47;;;;;;;22.38;67.60;96950.00;4950056;28;20585;-60
2023/06/29 06:44:12;;;;;;;2.45;2.38;;;;;;;22.59;63.16;96964.75;4962932;28;20047;-60
2023/06/29 06:46:38;;;;;;;2.08;2.08;;;;;;;22.70;64.52;96970.88;4967149;28;20050;-59
2023/06/29 06:49:05;;;;;;;2.80;2.70;;;;;;;22.35;63.63;96922.69;4966383;28;20058;-62
2023/06/29 06:51:32;;;;;;;2.72;2.63;;;;;;;22.61;62.73;96950.97;4999957;28;20051;-62
2023/06/29 06:53:59;;;;;;;2.60;2.50;;;;;;;22.79;60.96;96962.50;4968360;28;20065;-61
2023/06/29 06:56:25;;;;;;;2.53;2.42;;;;;;;22.28;61.62;96889.06;4966407;28;20050;-64
2023/06/29 06:58:52;;;;;;;2.30;2.30;;;;;;;22.74;61.70;96972.34;4966738;28;20130;-61
2023/06/29 07:01:21;;;;;;;2.53;2.42;;;;;;;22.88;60.57;96954.13;4968104;28;20069;-62
2023/06/29 07:03:48;;;;;;;2.38;2.30;;;;;;;22.32;64.03;96883.28;4965246;28;20112;-66
2023/06/29 07:06:15;;;;;;;2.33;2.28;;;;;;;23.11;62.51;96965.06;4982349;28;20145;-64
2023/06/29 07:08:41;;;;;;;2.50;2.40;;;;;;;22.93;60.17;96939.44;4965774;28;20047;-64
2023/06/29 07:11:08;;;;;;;2.90;2.80;;;;;;;23.25;60.18;96967.41;4965057;28;20091;-60
2023/06/29 07:13:35;;;;;;;2.42;2.35;;;;;;;23.32;57.16;96955.88;4967382;28;20058;-61
2023/06/29 07:16:01;;;;;;;2.65;2.55;;;;;;;23.40;56.40;96941.06;4964894;28;20051;-62
2023/06/29 07:18:30;;;;;;;2.70;2.60;;;;;;;23.53;55.51;96966.47;4963143;28;20106;-60
2023/06/29 07:20:56;;;;;;;2.72;2.63;;;;;;;23.66;53.56;96975.69;4965369;28;20507;-61
2023/06/29 07:23:26;;;;;;;2.97;2.88;;;;;;;23.77;53.82;96965.56;4966472;28;20058;-58
2023/06/29 07:25:55;;;;;;;2.90;2.80;;;;;;;23.32;54.50;96893.69;4967242;28;20051;-60
2023/06/29 07:28:22;;;;;;;2.90;2.80;;;;;;;23.47;54.42;96906.09;4966752;28;20062;-62
2023/06/29 07:30:51;;;;;;;3.22;3.13;;;;;;;23.87;53.10;96936.09;4965272;28;20511;-61
2023/06/29 07:33:18;;;;;;;2.58;2.47;;;;;;;24.22;51.25;96965.13;4964333;28;20060;-58
2023/06/29 07:35:44;;;;;;;3.08;2.97;;;;;;;24.12;51.20;96962.72;4965787;28;20058;-63
2023/06/29 07:38:12;;;;;;;3.33;3.22;;;;;;;23.72;51.96;96883.34;4967499;28;20118;-66
2023/06/29 07:40:39;;;;;;;3.08;2.97;;;;;;;24.39;51.03;96960.84;4964789;28;20053;-61
2023/06/29 07:43:05;;;;;;;3.17;3.08;;;;;;;24.52;49.95;96955.88;4966089;28;20062;-60
2023/06/29 07:45:32;;;;;;;3.03;2.92;;;;;;;24.74;49.44;96959.47;4965114;28;20633;-62
2023/06/29 07:47:59;;;;;;;3.35;3.25;;;;;;;24.09;48.41;96885.16;4947086;29;20525;-58
2023/06/29 07:50:25;;;;;;;3.33;3.22;;;;;;;24.96;50.24;96954.53;4948451;28;20543;-59
2023/06/29 07:52:53;;;;;;;3.30;3.20;;;;;;;24.91;48.64;96940.97;4948712;28;20134;-64
2023/06/29 07:55:20;;;;;;;3.15;3.05;;;;;;;24.84;48.64;96895.91;4948544;28;20497;-58
2023/06/29 07:57:47;;;;;;;3.40;3.30;;;;;;;24.35;49.50;96827.09;4948342;28;20589;-65
2023/06/29 08:00:17;;;;;;;3.65;3.55;;;;;;;25.26;49.26;96962.16;4947265;29;20427;-65
2023/06/29 08:02:45;;;;;;;3.67;3.58;;;;;;;25.55;48.29;96958.13;4948303;28;20150;-57
2023/06/29 08:05:12;;;;;;;3.83;3.72;;;;;;;25.22;45.92;96859.44;4948146;28;20047;-57
2023/06/29 08:07:42;;;;;;;3.80;3.70;;;;;;;26.04;46.55;96961.66;4957632;28;20091;-60
2023/06/29 08:10:09;;;;;;;3.33;3.22;;;;;;;25.90;45.99;96959.41;4965844;28;20507;-62
2023/06/29 08:12:36;;;;;;;3.40;3.30;;;;;;;25.72;44.70;96954.53;4965997;28;20126;-58
2023/06/29 08:15:03;;;;;;;3.80;3.70;;;;;;;25.62;45.53;96940.81;4978224;28;20086;-62
2023/06/29 08:17:40;;;;;;;3.50;3.40;;;;;;;25.40;46.59;96877.75;4961712;28;20046;-60
2023/06/29 08:20:12;;;;;;;3.70;3.60;;;;;;;26.10;46.67;96968.25;4965243;28;20059;-62
2023/06/29 08:22:40;;;;;;;3.85;3.75;;;;;;;26.41;45.64;96966.78;4995588;28;20058;-63
2023/06/29 08:25:07;;;;;;;3.58;3.47;;;;;;;26.07;46.69;96955.03;4965326;28;20057;-64
2023/06/29 08:27:35;;;;;;;3.50;3.40;;;;;;;26.04;44.17;96953.94;4964816;28;20073;-69
2023/06/29 08:30:02;;;;;;;3.70;3.60;;;;;;;25.92;45.52;96951.22;4962535;28;20046;-65
2023/06/29 08:32:29;;;;;;;3.80;3.70;;;;;;;26.36;46.53;96950.41;4964916;28;20085;-63
2023/06/29 08:34:55;;;;;;;3.45;3.35;;;;;;;25.81;45.23;96869.41;4965870;28;20082;-61
2023/06/29 08:37:22;;;;;;;3.63;3.53;;;;;;;26.36;45.71;96958.13;4963889;28;20042;-65
2023/06/29 08:39:49;;;;;;;3.13;3.03;;;;;;;25.62;43.30;96836.63;4966215;28;20061;-63
2023/06/29 08:42:15;;;;;;;3.90;3.80;;;;;;;25.56;46.51;96952.00;4965537;28;20469;-62
2023/06/29 08:44:42;;;;;;;3.67;3.58;;;;;;;25.95;45.08;96945.41;4967075;28;20077;-57
2023/06/29 08:47:11;;;;;;;3.67;3.58;;;;;;;25.91;45.50;96921.28;4966735;28;20924;-58
2023/06/29 08:49:38;;;;;;;3.70;3.60;;;;;;;26.28;44.77;96952.00;4967153;28;20055;-68
2023/06/29 08:52:07;;;;;;;3.70;3.60;;;;;;;26.29;43.28;96961.28;4961697;28;20430;-65
2023/06/29 08:54:35;;;;;;;3.70;3.60;;;;;;;25.92;44.71;96951.22;4963807;28;20055;-60
2023/06/29 08:57:02;;;;;;;4.10;4.00;;;;;;;26.13;44.57;96938.94;4964788;28;20051;-57
2023/06/29 08:59:29;;;;;;;4.07;3.97;;;;;;;26.52;45.09;96926.53;4965620;28;20597;-59
2023/06/29 09:01:58;;;;;;;4.03;3.92;;;;;;;26.62;45.81;96902.47;4964802;28;20425;-58
2023/06/29 09:04:25;;;;;;;3.67;3.58;;;;;;;27.00;43.72;96950.22;4974740;28;20445;-61
2023/06/29 09:06:55;;;;;;;4.30;4.20;;;;;;;26.30;44.57;96948.69;4961904;28;20086;-56
2023/06/29 09:09:23;;;;;;;3.63;3.53;;;;;;;26.19;45.46;96940.63;4965295;28;20080;-60
2023/06/29 09:11:51;;;;;;;3.55;3.45;;;;;;;26.23;45.46;96937.66;4964222;28;20121;-61
2023/06/29 09:14:18;;;;;;;3.95;3.85;;;;;;;26.73;44.89;96937.69;4966477;28;20058;-59
2023/06/29 09:16:53;;;;;;;3.53;3.42;;;;;;;25.67;43.65;96940.97;4964625;28;20504;-60
2023/06/29 09:19:21;;;;;;;3.90;3.80;;;;;;;26.03;45.90;96945.88;4966456;28;20296;-60
2023/06/29 09:21:48;;;;;;;3.60;3.50;;;;;;;26.56;43.47;96944.19;4963943;28;20066;-59
2023/06/29 09:39:58;;;;;;;1.80;1.80;;;;;;;28.09;40.83;96923.38;5137760;27;20416;-68
2023/06/29 09:42:28;;;;;;;1.70;1.70;;;;;;;27.61;39.59;96916.19;5119590;27;20067;-62
2023/06/29 09:45:00;;;;;;;1.50;1.50;;;;;;;27.92;40.01;96919.44;5117690;27;20058;-64
2023/06/29 09:47:27;;;;;;;1.70;1.70;;;;;;;27.65;40.56;96839.91;5113713;27;20585;-62
2023/06/29 09:49:56;;;;;;;1.65;1.65;;;;;;;27.00;40.23;96893.34;5116972;27;20513;-67
2023/06/29 09:52:23;;;;;;;1.60;1.60;;;;;;;25.80;42.57;96870.66;5119788;27;20548;-62
2023/06/29 09:54:50;;;;;;;1.55;1.55;;;;;;;26.49;42.19;96879.19;5120082;27;20419;-61
2023/06/29 09:57:17;;;;;;;1.60;1.60;;;;;;;25.37;43.29;96909.91;5117227;27;20040;-60
2023/06/29 09:59:44;;;;;;;1.13;1.13;;;;;;;25.14;44.58;96872.38;5120053;27;20058;-60
2023/06/29 10:02:12;;;;;;;1.50;1.50;;;;;;;25.84;44.49;96910.22;5117914;27;20047;-62
2023/06/29 10:04:40;;;;;;;1.30;1.30;;;;;;;25.27;45.86;96907.03;5130373;27;20461;-64
2023/06/29 10:07:18;;;;;;;1.40;1.40;;;;;;;25.50;46.55;96907.72;5117381;28;20059;-64
2023/06/29 10:09:49;;;;;;;1.55;1.55;;;;;;;25.74;47.71;96900.13;5117878;27;20058;-66
2023/06/29 10:12:20;;;;;;;1.23;1.23;;;;;;;25.10;44.95;96925.56;5117381;27;20490;-65
2023/06/29 10:14:48;;;;;;;1.25;1.25;;;;;;;24.31;47.22;96917.06;5118016;27;20172;-65
2023/06/29 10:17:41;;;;;;;1.30;1.30;;;;;;;23.92;48.21;96869.63;5115778;28;20633;-64
2023/06/29 10:20:09;;;;;;;1.30;1.30;;;;;;;24.24;48.65;96874.06;5117764;27;20054;-65
2023/06/29 10:22:37;;;;;;;1.25;1.25;;;;;;;23.66;47.42;96885.19;5119941;27;20584;-63
2023/06/29 10:25:09;;;;;;;1.20;1.20;;;;;;;24.38;47.29;96856.53;5121058;27;20051;-64
2023/06/29 10:27:38;;;;;;;1.15;1.15;;;;;;;25.10;45.07;96911.41;5119042;27;20130;-64
2023/06/29 10:30:06;;;;;;;1.30;1.30;;;;;;;25.45;46.02;96858.06;5119366;27;20055;-64
2023/06/29 10:32:39;;;;;;;1.20;1.20;;;;;;;26.20;43.33;96861.91;5119159;27;20488;-62
2023/06/29 10:35:11;;;;;;;1.42;1.42;;;;;;;26.53;42.86;96874.91;5119105;27;20043;-64
2023/06/29 10:37:46;;;;;;;1.60;1.60;;;;;;;26.36;41.27;96864.41;5119023;27;20113;-64
2023/06/29 10:40:21;;;;;;;1.40;1.40;;;;;;;24.83;40.77;96848.22;5108330;28;20043;-67
2023/06/29 10:42:50;;;;;;;1.38;1.38;;;;;;;25.02;42.52;96901.63;5106897;28;20557;-62
2023/06/29 10:45:22;;;;;;;1.33;1.33;;;;;;;25.65;42.79;96911.50;5095218;27;20063;-63
2023/06/29 10:47:55;;;;;;;1.20;1.20;;;;;;;25.99;40.73;96896.94;5087549;28;20052;-66
2023/06/29 10:50:27;;;;;;;1.25;1.25;;;;;;;25.92;40.28;96864.03;5084499;28;20517;-63
2023/06/29 10:52:59;;;;;;;1.33;1.33;;;;;;;26.96;40.30;96899.19;5078332;28;20456;-59
2023/06/29 10:55:38;;;;;;;1.55;1.55;;;;;;;26.57;38.21;96841.41;5081343;28;20099;-62
2023/06/29 10:58:20;;;;;;;1.70;1.70;;;;;;;27.16;37.40;96884.41;5082991;28;20054;-65
2023/06/29 11:00:49;;;;;;;1.40;1.40;;;;;;;26.26;38.48;96854.31;5084473;28;20135;-65
2023/06/29 11:03:16;;;;;;;1.50;1.50;;;;;;;26.57;37.78;96838.56;5081440;28;20127;-67
2023/06/29 11:05:46;;;;;;;1.48;1.48;;;;;;;26.70;38.13;96846.88;5084271;28;20536;-64
2023/06/29 11:08:14;;;;;;;1.60;1.60;;;;;;;26.67;37.35;96825.91;5084343;28;20052;-63
2023/06/29 11:10:40;;;;;;;1.33;1.33;;;;;;;26.73;37.77;96856.53;5083511;28;20146;-63
2023/06/29 11:13:09;;;;;;;1.38;1.38;;;;;;;26.87;37.82;96850.13;5082518;28;20059;-69
2023/06/29 11:15:36;;;;;;;1.40;1.40;;;;;;;26.61;38.26;96838.38;5083362;28;20055;-64
2023/06/29 11:18:07;;;;;;;1.67;1.67;;;;;;;26.30;38.86;96846.44;5082646;28;20059;-61
2023/06/29 11:20:39;;;;;;;1.30;1.30;;;;;;;26.94;38.00;96884.66;5074710;28;20149;-62
2023/06/29 11:23:07;;;;;;;1.60;1.60;;;;;;;27.10;38.37;96874.94;5064133;28;20085;-62
2023/06/29 11:25:36;;;;;;;1.60;1.60;;;;;;;27.38;37.62;96879.97;5065177;28;20537;-62
2023/06/29 11:28:03;;;;;;;1.40;1.40;;;;;;;27.01;37.56;96793.31;5065848;28;20052;-63
2023/06/29 11:30:30;;;;;;;1.55;1.55;;;;;;;27.43;39.00;96828.09;5083225;28;20044;-63
2023/06/29 11:32:57;;;;;;;1.70;1.70;;;;;;;27.74;37.22;96828.44;5072153;28;20051;-63
2023/06/29 11:35:24;;;;;;;1.70;1.70;;;;;;;27.69;38.73;96797.81;5079189;28;20270;-65
2023/06/29 11:38:00;;;;;;;1.73;1.73;;;;;;;27.80;36.11;96797.22;5070574;28;20068;-63
2023/06/29 11:40:28;;;;;;;1.60;1.60;;;;;;;28.42;37.17;96871.13;5081119;28;20067;-65
2023/06/29 11:42:54;;;;;;;1.65;1.65;;;;;;;28.40;36.35;96822.38;5084196;28;20040;-62
2023/06/29 11:45:22;;;;;;;1.65;1.65;;;;;;;28.59;35.76;96869.34;5081249;28;20054;-62
2023/06/29 11:47:56;;;;;;;1.70;1.70;;;;;;;28.21;36.89;96832.41;5082529;28;20101;-64